Time;durP1;ratioP1;P1;durP2;ratioP2;P2;SDS_P1;SDS_P2;PMS_P1;PMS_P2;Temp;Humidity;BMP_temperature;BMP_pressure;BME280_temperature;BME280_humidity;BME280_pressure;Samples;Min_cycle;Max_cycle;Signal;HPM_P1;HPM_P2
2022/10/29 00:01:33;;;;;;;4.47;2.47;;;15.90;99.90;;;;;;4917831;29;20028;-80
2022/10/29 00:03:59;;;;;;;2.95;2.28;;;15.80;99.90;;;;;;4916588;29;20114;-80
2022/10/29 00:06:24;;;;;;;4.60;2.25;;;15.80;99.90;;;;;;4916724;29;20180;-80
2022/10/29 00:08:50;;;;;;;3.75;2.20;;;15.80;99.90;;;;;;4916893;29;20032;-80
2022/10/29 00:11:18;;;;;;;3.42;2.05;;;15.80;99.90;;;;;;4891888;29;20506;-80
2022/10/29 00:13:45;;;;;;;4.45;2.80;;;15.80;99.90;;;;;;4915962;29;20481;-80
2022/10/29 00:16:16;;;;;;;4.50;2.20;;;15.80;99.90;;;;;;4915080;29;20067;-80
2022/10/29 00:18:43;;;;;;;2.42;2.08;;;15.80;99.90;;;;;;4915934;29;20055;-80
2022/10/29 00:21:12;;;;;;;3.72;2.75;;;15.80;99.90;;;;;;4917184;29;20036;-80
2022/10/29 00:23:38;;;;;;;7.07;2.30;;;15.80;99.90;;;;;;4915254;29;20032;-80
2022/10/29 00:26:04;;;;;;;4.72;1.95;;;15.80;99.90;;;;;;4916587;29;20450;-80
2022/10/29 00:28:31;;;;;;;4.20;2.00;;;15.80;99.90;;;;;;4916607;29;20032;-79
2022/10/29 00:31:00;;;;;;;5.68;2.38;;;15.70;99.90;;;;;;4916540;29;20036;-79
2022/10/29 00:33:26;;;;;;;3.17;1.98;;;15.80;99.90;;;;;;4899622;29;20038;-80
2022/10/29 00:36:07;;;;;;;4.03;2.00;;;15.70;99.90;;;;;;4915526;29;20162;-80
2022/10/29 00:38:34;;;;;;;2.83;1.92;;;15.70;99.90;;;;;;4915366;29;20059;-80
2022/10/29 00:41:00;;;;;;;2.00;1.83;;;15.70;99.90;;;;;;4898614;29;20084;-80
2022/10/29 00:43:27;;;;;;;3.30;2.05;;;15.60;99.90;;;;;;4915491;29;20095;-80
2022/10/29 00:45:55;;;;;;;6.85;2.10;;;15.60;99.90;;;;;;4898152;29;20432;-80
2022/10/29 00:48:23;;;;;;;3.08;2.15;;;15.60;99.90;;;;;;4898439;29;20032;-80
2022/10/29 00:50:50;;;;;;;3.50;2.28;;;15.60;99.90;;;;;;4916610;29;20113;-80
2022/10/29 00:53:20;;;;;;;2.15;1.95;;;15.60;99.90;;;;;;4899863;29;20036;-79
2022/10/29 00:55:45;;;;;;;27.17;14.43;;;15.50;99.90;;;;;;4916867;29;20095;-79
2022/10/29 00:58:11;;;;;;;3.47;2.72;;;15.60;99.90;;;;;;4900801;29;20119;-80
2022/10/29 01:00:37;;;;;;;3.28;1.95;;;15.60;99.90;;;;;;4917886;29;20506;-80
2022/10/29 01:03:04;;;;;;;2.58;2.22;;;15.60;99.90;;;;;;4917635;29;20038;-80
2022/10/29 01:05:32;;;;;;;2.17;1.95;;;15.60;99.90;;;;;;4881800;29;20052;-80
2022/10/29 01:07:58;;;;;;;2.05;1.58;;;15.60;99.90;;;;;;4898841;29;20107;-80
2022/10/29 01:10:42;;;;;;;2.75;2.20;;;15.60;99.90;;;;;;4898643;29;20565;-80
2022/10/29 01:13:50;;;;;;;2.00;1.75;;;15.50;99.90;;;;;;4881748;29;20025;-79
2022/10/29 01:16:53;;;;;;;4.72;2.10;;;15.60;99.90;;;;;;4898594;29;20567;-80
2022/10/29 01:19:36;;;;;;;2.40;1.90;;;15.50;99.90;;;;;;4881771;29;20025;-80
2022/10/29 01:22:27;;;;;;;3.30;1.80;;;15.50;99.90;;;;;;4898481;29;20027;-80
2022/10/29 01:25:07;;;;;;;3.42;2.08;;;15.50;99.90;;;;;;4898347;29;20039;-80
2022/10/29 01:28:14;;;;;;;2.97;2.30;;;15.50;99.90;;;;;;4881677;29;20735;-80
2022/10/29 01:31:08;;;;;;;1.88;1.77;;;15.50;99.90;;;;;;4854443;29;20039;-80
2022/10/29 01:33:56;;;;;;;5.68;1.98;;;15.50;99.90;;;;;;4898504;29;20051;-80
2022/10/29 01:36:25;;;;;;;3.30;2.05;;;15.50;99.90;;;;;;4898470;29;20021;-80
2022/10/29 01:39:01;;;;;;;2.22;1.92;;;15.50;99.90;;;;;;4881634;29;20440;-80
2022/10/29 01:42:24;;;;;;;5.57;2.30;;;15.50;99.90;;;;;;4899924;29;20495;-80
2022/10/29 01:44:55;;;;;;;3.75;2.53;;;15.40;99.90;;;;;;4859064;29;20050;-79
2022/10/29 01:47:25;;;;;;;3.65;1.75;;;15.30;99.90;;;;;;4899077;29;20036;-80
2022/10/29 01:49:56;;;;;;;2.17;1.95;;;15.30;99.90;;;;;;4917034;29;20487;-79
2022/10/29 01:52:23;;;;;;;5.03;1.98;;;15.30;99.90;;;;;;4917162;29;20042;-79
2022/10/29 01:54:49;;;;;;;3.10;1.83;;;15.30;99.90;;;;;;4916911;29;20031;-80
2022/10/29 01:57:23;;;;;;;4.65;1.98;;;15.30;99.90;;;;;;4899396;29;20111;-80
2022/10/29 01:59:49;;;;;;;4.03;2.08;;;15.30;99.90;;;;;;4900015;29;20032;-80
2022/10/29 02:02:48;;;;;;;3.55;2.30;;;15.30;99.90;;;;;;4900105;29;20064;-80
2022/10/29 02:05:29;;;;;;;5.20;2.20;;;15.30;99.90;;;;;;4887354;29;20072;-80
2022/10/29 02:07:57;;;;;;;3.75;2.00;;;15.20;99.90;;;;;;4916677;29;20033;-79
2022/10/29 02:11:01;;;;;;;4.13;1.95;;;15.10;99.90;;;;;;4899767;29;20047;-80
2022/10/29 02:13:38;;;;;;;3.10;1.98;;;15.10;99.90;;;;;;4916783;29;20024;-79
2022/10/29 02:16:06;;;;;;;2.30;2.13;;;15.10;99.90;;;;;;4916917;29;20376;-80
2022/10/29 02:18:40;;;;;;;2.05;1.85;;;15.10;99.90;;;;;;4916858;29;20067;-80
2022/10/29 02:21:05;;;;;;;2.60;2.17;;;15.10;99.90;;;;;;4916908;29;20056;-79
2022/10/29 02:23:31;;;;;;;2.20;1.80;;;15.10;99.90;;;;;;4899755;29;20078;-79
2022/10/29 02:25:57;;;;;;;6.95;2.60;;;15.10;99.90;;;;;;4899647;29;20035;-80
2022/10/29 02:28:23;;;;;;;3.67;2.20;;;15.10;99.90;;;;;;4899508;29;20514;-80
2022/10/29 02:30:49;;;;;;;3.90;1.90;;;15.10;99.90;;;;;;4916569;29;20034;-79
2022/10/29 02:33:15;;;;;;;6.63;2.22;;;15.10;99.90;;;;;;4916511;29;20020;-80
2022/10/29 02:35:41;;;;;;;4.22;2.22;;;15.10;99.90;;;;;;4916511;29;20076;-79
2022/10/29 02:38:06;;;;;;;4.13;1.95;;;15.20;99.90;;;;;;4916533;29;20024;-79
2022/10/29 02:40:32;;;;;;;5.55;2.22;;;15.10;99.90;;;;;;4889540;29;20058;-80
2022/10/29 02:42:58;;;;;;;3.15;1.92;;;15.20;99.90;;;;;;4899549;29;20039;-80
2022/10/29 02:45:23;;;;;;;1.80;1.70;;;15.20;99.90;;;;;;4899611;29;20028;-80
2022/10/29 02:47:49;;;;;;;2.15;2.00;;;15.20;99.90;;;;;;4916355;29;20118;-80
2022/10/29 02:50:15;;;;;;;4.75;1.88;;;15.20;99.90;;;;;;4916689;29;20039;-79
2022/10/29 02:52:40;;;;;;;2.55;2.03;;;15.20;99.90;;;;;;4899548;29;20494;-80
2022/10/29 02:55:06;;;;;;;3.33;1.80;;;15.20;99.90;;;;;;4916388;29;20501;-80
2022/10/29 02:57:32;;;;;;;7.03;2.25;;;15.20;99.90;;;;;;4916515;29;20051;-80
2022/10/29 02:59:58;;;;;;;3.00;1.67;;;15.10;99.90;;;;;;4916513;29;20491;-80
2022/10/29 03:02:23;;;;;;;2.20;2.10;;;15.10;99.90;;;;;;4916402;29;20372;-80
2022/10/29 03:04:49;;;;;;;76.40;40.03;;;15.10;99.90;;;;;;4916191;29;20028;-79
2022/10/29 03:07:15;;;;;;;697.47;353.63;;;15.20;99.90;;;;;;4899421;29;20118;-79
2022/10/29 03:09:40;;;;;;;218.40;96.10;;;15.20;99.90;;;;;;4918452;29;20032;-77
2022/10/29 03:12:06;;;;;;;87.22;31.58;;;15.30;99.90;;;;;;4903007;29;20513;-79
2022/10/29 03:14:32;;;;;;;5.40;2.67;;;15.30;99.90;;;;;;4919816;29;20026;-79
2022/10/29 03:16:58;;;;;;;4.65;2.08;;;15.30;99.90;;;;;;4902813;29;20020;-80
2022/10/29 03:19:23;;;;;;;5.40;2.47;;;15.30;99.90;;;;;;4902840;29;20530;-80
2022/10/29 03:21:49;;;;;;;1.65;1.55;;;15.20;99.90;;;;;;4919826;29;20620;-80
2022/10/29 03:24:15;;;;;;;4.13;2.40;;;15.10;99.90;;;;;;4902593;29;20036;-79
2022/10/29 03:26:40;;;;;;;3.08;1.98;;;15.10;99.90;;;;;;4919429;29;20029;-80
2022/10/29 03:29:06;;;;;;;2.53;2.10;;;15.00;99.90;;;;;;4919221;29;20047;-79
2022/10/29 03:31:32;;;;;;;2.90;2.20;;;15.10;99.90;;;;;;4918547;29;20025;-79
2022/10/29 03:33:58;;;;;;;4.10;1.75;;;15.00;99.90;;;;;;4901759;29;20035;-79
2022/10/29 03:36:24;;;;;;;5.60;1.90;;;15.00;99.90;;;;;;4902129;29;20024;-80
2022/10/29 03:38:49;;;;;;;2.22;2.03;;;15.00;99.90;;;;;;4919113;29;20032;-80
2022/10/29 03:41:15;;;;;;;2.45;1.80;;;15.00;99.90;;;;;;4919183;29;20076;-80
2022/10/29 03:43:41;;;;;;;2.80;2.03;;;14.90;99.90;;;;;;4919138;29;20115;-80
2022/10/29 03:46:06;;;;;;;3.65;2.28;;;14.90;99.90;;;;;;4919201;29;20035;-79
2022/10/29 03:48:33;;;;;;;4.45;2.38;;;14.90;99.90;;;;;;4919228;29;20394;-80
2022/10/29 03:51:04;;;;;;;4.30;1.90;;;14.90;99.90;;;;;;4918556;29;20028;-80
2022/10/29 03:53:31;;;;;;;5.13;1.70;;;14.80;99.90;;;;;;4917199;29;20024;-80
2022/10/29 03:55:57;;;;;;;3.25;2.00;;;14.80;99.90;;;;;;4916419;29;20031;-80
2022/10/29 03:58:24;;;;;;;3.90;2.17;;;14.80;99.90;;;;;;4899401;29;20398;-80
2022/10/29 04:00:58;;;;;;;7.28;2.03;;;14.80;99.90;;;;;;4916762;29;20032;-80
2022/10/29 04:03:25;;;;;;;5.10;1.98;;;14.80;99.90;;;;;;4899296;29;20491;-80
2022/10/29 04:05:51;;;;;;;2.35;1.67;;;14.80;99.90;;;;;;4915987;29;20052;-80
2022/10/29 04:08:16;;;;;;;4.88;1.88;;;14.80;99.90;;;;;;4916189;29;20032;-80
2022/10/29 04:10:47;;;;;;;2.03;1.77;;;14.80;99.90;;;;;;4898731;29;20024;-80
2022/10/29 04:13:13;;;;;;;2.70;2.00;;;14.70;99.90;;;;;;4915705;29;20028;-80
2022/10/29 04:15:39;;;;;;;3.83;2.13;;;14.70;99.90;;;;;;4899016;29;20428;-79
2022/10/29 04:18:05;;;;;;;4.40;1.70;;;14.70;99.90;;;;;;4915823;29;20048;-80
2022/10/29 04:20:31;;;;;;;6.47;2.35;;;14.70;99.90;;;;;;4915050;29;20028;-80
2022/10/29 04:22:57;;;;;;;4.93;1.80;;;14.80;99.90;;;;;;4916322;29;20035;-80
2022/10/29 04:25:22;;;;;;;3.13;1.95;;;14.80;99.90;;;;;;4900142;29;20059;-80
2022/10/29 04:27:48;;;;;;;3.65;1.85;;;14.80;99.90;;;;;;4917365;29;20032;-80
2022/10/29 04:30:14;;;;;;;2.17;1.77;;;14.70;99.90;;;;;;4917216;29;20368;-80
2022/10/29 04:32:39;;;;;;;2.42;1.90;;;14.60;99.90;;;;;;4917177;29;20149;-80
2022/10/29 04:35:05;;;;;;;4.60;2.00;;;14.60;99.90;;;;;;4917175;29;20483;-80
2022/10/29 04:37:31;;;;;;;4.35;2.10;;;14.60;99.90;;;;;;4917260;29;20344;-79
2022/10/29 04:39:57;;;;;;;3.72;2.17;;;14.60;99.90;;;;;;4917199;29;20083;-80
2022/10/29 04:42:22;;;;;;;3.72;1.77;;;14.70;99.90;;;;;;4900229;29;20181;-80
2022/10/29 04:44:48;;;;;;;4.78;1.85;;;14.70;99.90;;;;;;4916992;29;20032;-80
2022/10/29 04:47:14;;;;;;;2.08;1.65;;;14.70;99.90;;;;;;4917131;29;20063;-80
2022/10/29 04:49:39;;;;;;;3.85;1.85;;;14.70;99.90;;;;;;4899975;29;20075;-79
2022/10/29 04:52:05;;;;;;;4.35;1.85;;;14.70;99.90;;;;;;4916859;29;20040;-80
2022/10/29 04:54:31;;;;;;;3.65;1.95;;;14.70;99.90;;;;;;4899890;29;20020;-80
2022/10/29 04:56:56;;;;;;;2.53;2.17;;;14.60;99.90;;;;;;4916953;29;20140;-80
2022/10/29 04:59:22;;;;;;;8.50;2.28;;;14.60;99.90;;;;;;4916284;29;20035;-80
2022/10/29 05:01:48;;;;;;;3.03;1.80;;;14.60;99.90;;;;;;4916637;29;20111;-80
2022/10/29 05:04:13;;;;;;;4.25;1.67;;;14.70;99.90;;;;;;4916511;29;20024;-80
2022/10/29 05:06:39;;;;;;;4.47;1.92;;;14.70;99.90;;;;;;4899385;29;20503;-80
2022/10/29 05:09:06;;;;;;;2.47;2.28;;;14.70;99.90;;;;;;4916550;29;20059;-80
2022/10/29 05:11:31;;;;;;;1.83;1.73;;;14.60;99.90;;;;;;4899600;29;20087;-80
2022/10/29 05:13:57;;;;;;;4.75;1.85;;;14.60;99.90;;;;;;4916375;29;20478;-80
2022/10/29 05:16:23;;;;;;;4.50;1.70;;;14.70;99.90;;;;;;4899458;29;20024;-80
2022/10/29 05:18:48;;;;;;;4.30;2.05;;;14.70;99.90;;;;;;4916490;29;20043;-80
2022/10/29 05:21:14;;;;;;;3.78;1.60;;;14.80;99.90;;;;;;4910097;29;20031;-80
2022/10/29 05:23:40;;;;;;;5.40;2.20;;;14.80;99.90;;;;;;4897257;29;20483;-80
2022/10/29 05:26:05;;;;;;;10.20;1.80;;;14.90;99.90;;;;;;4897452;29;20126;-80
2022/10/29 05:28:31;;;;;;;5.68;2.22;;;14.90;99.90;;;;;;4880457;29;20075;-80
2022/10/29 05:31:00;;;;;;;2.47;1.50;;;15.00;99.90;;;;;;4897121;29;20049;-80
2022/10/29 05:33:26;;;;;;;2.22;2.00;;;15.00;99.90;;;;;;4896347;29;20519;-80
2022/10/29 05:35:52;;;;;;;4.30;2.08;;;14.80;99.90;;;;;;4897302;29;20032;-80
2022/10/29 05:38:18;;;;;;;6.25;2.13;;;14.70;99.90;;;;;;4897324;29;20100;-81
2022/10/29 05:40:44;;;;;;;2.35;2.10;;;14.60;99.90;;;;;;4880348;29;20037;-80
2022/10/29 05:43:15;;;;;;;3.88;2.13;;;14.60;99.90;;;;;;4880521;29;20029;-80
2022/10/29 05:45:41;;;;;;;2.55;2.15;;;14.60;99.90;;;;;;4897088;29;20403;-80
2022/10/29 05:48:08;;;;;;;2.70;2.47;;;14.60;99.90;;;;;;4897231;29;20025;-80
2022/10/29 05:50:34;;;;;;;2.65;1.77;;;14.60;99.90;;;;;;4896920;29;20032;-80
2022/10/29 05:53:03;;;;;;;3.20;1.90;;;14.70;99.90;;;;;;4896955;29;20025;-80
2022/10/29 05:55:30;;;;;;;5.15;2.38;;;14.70;99.90;;;;;;4896924;29;20076;-80
2022/10/29 05:58:01;;;;;;;6.28;2.15;;;14.80;99.90;;;;;;4897051;29;20547;-80
2022/10/29 06:00:29;;;;;;;5.80;2.08;;;14.70;99.90;;;;;;4896789;29;20064;-80
2022/10/29 06:02:55;;;;;;;2.55;2.08;;;14.70;99.90;;;;;;4913697;29;20455;-80
2022/10/29 06:05:23;;;;;;;4.22;2.10;;;14.60;99.90;;;;;;4914434;29;20044;-80
2022/10/29 06:07:56;;;;;;;2.40;2.00;;;14.60;99.90;;;;;;4915096;29;20038;-80
2022/10/29 06:10:23;;;;;;;3.92;2.25;;;14.60;99.90;;;;;;4915401;29;20024;-80
2022/10/29 06:12:49;;;;;;;3.05;1.70;;;14.70;99.90;;;;;;4915545;29;20103;-80
2022/10/29 06:15:15;;;;;;;2.65;1.95;;;14.80;99.90;;;;;;4915622;29;20485;-80
2022/10/29 06:17:41;;;;;;;3.25;2.00;;;14.80;99.90;;;;;;4898650;29;20390;-80
2022/10/29 06:20:09;;;;;;;1.98;1.70;;;14.80;99.90;;;;;;4915491;29;20107;-80
2022/10/29 06:22:34;;;;;;;3.03;2.00;;;14.80;99.90;;;;;;4898625;29;20032;-80
2022/10/29 06:25:00;;;;;;;3.83;1.63;;;14.80;99.90;;;;;;4915596;29;20104;-81
2022/10/29 06:27:26;;;;;;;5.18;2.20;;;14.80;99.90;;;;;;4915785;29;20447;-81
2022/10/29 06:29:52;;;;;;;4.93;1.75;;;14.80;99.90;;;;;;4898316;29;20036;-80
2022/10/29 06:32:17;;;;;;;3.75;2.28;;;14.70;99.90;;;;;;4915906;29;20028;-80
2022/10/29 06:34:43;;;;;;;2.63;1.92;;;14.70;99.90;;;;;;4915868;29;20020;-80
2022/10/29 06:37:09;;;;;;;3.35;1.70;;;14.80;99.90;;;;;;4915349;29;20083;-80
2022/10/29 06:39:35;;;;;;;1.88;1.77;;;14.70;99.90;;;;;;4915534;29;20035;-81
2022/10/29 06:42:01;;;;;;;3.95;2.00;;;14.80;99.90;;;;;;4915589;29;20043;-80
2022/10/29 06:44:26;;;;;;;5.57;2.25;;;14.80;99.90;;;;;;4917432;29;20040;-80
2022/10/29 06:46:52;;;;;;;3.58;2.08;;;14.80;99.90;;;;;;4919475;29;20031;-80
2022/10/29 06:49:19;;;;;;;4.10;2.55;;;14.80;99.90;;;;;;4919135;29;20024;-80
2022/10/29 06:51:44;;;;;;;4.70;2.85;;;14.80;99.90;;;;;;4919159;29;20479;-80
2022/10/29 06:54:10;;;;;;;4.97;2.45;;;14.90;99.90;;;;;;4919424;29;20112;-80
2022/10/29 06:56:36;;;;;;;4.93;2.88;;;14.90;99.90;;;;;;4901684;29;20035;-81
2022/10/29 06:59:01;;;;;;;6.35;2.15;;;15.20;99.90;;;;;;4901950;29;20020;-80
2022/10/29 07:01:29;;;;;;;4.47;2.10;;;15.20;99.90;;;;;;4918727;29;20060;-80
2022/10/29 07:03:54;;;;;;;6.50;2.00;;;15.10;99.90;;;;;;4918623;29;20055;-80
2022/10/29 07:06:20;;;;;;;8.25;2.63;;;15.10;99.90;;;;;;4918095;29;20087;-80
2022/10/29 07:08:46;;;;;;;6.05;3.22;;;15.10;99.90;;;;;;4917309;29;20410;-80
2022/10/29 07:11:11;;;;;;;7.30;2.25;;;15.20;99.90;;;;;;4917056;29;20537;-80
2022/10/29 07:13:37;;;;;;;4.45;2.63;;;15.20;99.90;;;;;;4910059;29;20060;-80
2022/10/29 07:16:03;;;;;;;5.75;2.15;;;15.20;99.90;;;;;;4898619;29;20025;-80
2022/10/29 07:18:31;;;;;;;5.93;2.38;;;15.20;99.90;;;;;;4881527;29;20129;-80
2022/10/29 07:20:57;;;;;;;3.60;2.20;;;15.20;99.90;;;;;;4898213;29;20056;-80
2022/10/29 07:23:22;;;;;;;4.90;2.88;;;15.30;99.90;;;;;;4898599;29;20070;-80
2022/10/29 07:25:51;;;;;;;2.83;2.40;;;15.40;99.90;;;;;;4899559;29;20032;-80
2022/10/29 07:28:24;;;;;;;4.55;3.03;;;15.40;99.90;;;;;;4899476;29;20095;-80
2022/10/29 07:30:51;;;;;;;7.15;3.20;;;15.50;99.90;;;;;;4899559;29;20471;-80
2022/10/29 07:33:17;;;;;;;9.23;2.72;;;15.50;99.90;;;;;;4899405;29;20435;-80
2022/10/29 07:35:43;;;;;;;6.43;2.72;;;15.50;99.90;;;;;;4882617;29;20116;-80
2022/10/29 07:38:10;;;;;;;3.35;2.20;;;15.60;99.90;;;;;;4882542;29;20035;-80
2022/10/29 07:40:38;;;;;;;4.88;2.40;;;15.60;99.90;;;;;;4882501;29;20092;-80
2022/10/29 07:43:04;;;;;;;4.63;2.55;;;15.60;99.90;;;;;;4882386;29;20024;-80
2022/10/29 07:45:29;;;;;;;6.90;3.60;;;15.60;99.90;;;;;;4882367;29;20440;-81
2022/10/29 07:48:03;;;;;;;7.90;3.90;;;15.60;99.90;;;;;;4899163;29;20024;-80
2022/10/29 07:50:30;;;;;;;5.88;3.58;;;15.60;99.90;;;;;;4899291;29;20033;-80
2022/10/29 07:52:58;;;;;;;9.32;4.35;;;15.70;99.90;;;;;;4882165;29;20028;-80
2022/10/29 07:55:24;;;;;;;14.95;4.70;;;15.70;99.90;;;;;;4898009;29;20048;-80
2022/10/29 07:57:57;;;;;;;6.70;4.32;;;15.80;99.90;;;;;;4899248;29;20104;-80
2022/10/29 08:00:24;;;;;;;7.03;4.45;;;15.80;99.90;;;;;;4882077;29;20032;-80
2022/10/29 08:02:53;;;;;;;9.13;4.32;;;15.80;99.90;;;;;;4898834;29;20043;-80
2022/10/29 08:05:20;;;;;;;12.15;4.55;;;15.90;99.90;;;;;;4882066;29;20403;-80
2022/10/29 08:07:46;;;;;;;6.18;4.65;;;15.90;99.90;;;;;;4898663;29;20040;-80
2022/10/29 08:10:12;;;;;;;12.50;5.65;;;15.90;99.90;;;;;;4898692;29;20399;-80
2022/10/29 08:12:37;;;;;;;8.40;4.75;;;16.00;99.90;;;;;;4898836;29;20028;-80
2022/10/29 08:15:04;;;;;;;6.68;4.70;;;16.10;99.90;;;;;;4898733;29;20449;-80
2022/10/29 08:17:31;;;;;;;5.05;4.22;;;16.10;99.90;;;;;;4898725;29;20039;-80
2022/10/29 08:19:56;;;;;;;9.35;4.50;;;16.20;99.90;;;;;;4898653;29;20103;-80
2022/10/29 08:22:23;;;;;;;6.43;4.25;;;16.20;99.90;;;;;;4898558;29;20420;-80
2022/10/29 08:24:49;;;;;;;11.05;4.95;;;16.20;99.90;;;;;;4898388;29;20486;-80
2022/10/29 08:27:14;;;;;;;9.60;5.18;;;16.30;99.90;;;;;;4898436;29;20059;-80
2022/10/29 08:29:40;;;;;;;10.38;5.32;;;16.30;99.90;;;;;;4898317;29;20505;-80
2022/10/29 08:32:06;;;;;;;11.15;5.22;;;16.40;99.90;;;;;;4881349;29;20104;-80
2022/10/29 08:34:31;;;;;;;15.30;6.75;;;16.40;99.90;;;;;;4898100;29;20036;-80
2022/10/29 08:36:57;;;;;;;13.30;7.50;;;16.50;99.90;;;;;;4898068;29;20050;-80
2022/10/29 08:39:23;;;;;;;11.73;6.13;;;16.60;99.90;;;;;;4898246;29;20025;-80
2022/10/29 08:42:15;;;;;;;10.15;7.20;;;16.60;99.90;;;;;;4898045;29;20436;-80
2022/10/29 08:44:49;;;;;;;;;;;16.60;99.90;;;;;;4898323;29;20036;-80
2022/10/29 08:47:19;;;;;;;12.63;7.53;;;16.60;99.90;;;;;;4898038;29;19959;-80
2022/10/29 08:50:03;;;;;;;13.20;7.45;;;16.60;99.90;;;;;;4880962;29;20032;-80
2022/10/29 08:52:33;;;;;;;10.75;7.40;;;16.60;99.90;;;;;;4897814;29;20509;-81
2022/10/29 08:55:05;;;;;;;11.52;7.35;;;16.70;99.90;;;;;;4897733;29;20024;-80
2022/10/29 08:57:36;;;;;;;14.35;6.95;;;16.70;99.90;;;;;;4880990;29;20502;-80
2022/10/29 09:00:06;;;;;;;12.82;7.20;;;16.70;99.90;;;;;;4897751;29;20032;-80
2022/10/29 09:02:32;;;;;;;18.08;6.80;;;16.80;99.90;;;;;;4897632;29;20031;-80
2022/10/29 09:05:00;;;;;;;16.88;8.00;;;16.70;99.90;;;;;;4909108;29;20024;-80
2022/10/29 09:07:54;;;;;;;15.68;7.43;;;16.80;99.90;;;;;;4899368;29;20395;-80
2022/10/29 09:10:36;;;;;;;12.25;7.13;;;16.90;99.90;;;;;;4899332;29;20056;-80
2022/10/29 09:13:26;;;;;;;13.57;8.00;;;17.00;99.90;;;;;;4916365;29;20119;-80
2022/10/29 09:16:13;;;;;;;15.95;7.22;;;17.00;99.90;;;;;;4916241;29;20039;-80
2022/10/29 09:19:05;;;;;;;11.85;6.82;;;17.20;99.90;;;;;;4916156;29;20032;-80
2022/10/29 09:21:51;;;;;;;17.35;7.13;;;17.30;99.90;;;;;;4916126;29;20028;-80
2022/10/29 09:24:25;;;;;;;11.93;7.68;;;17.30;99.90;;;;;;4916166;29;20028;-80
2022/10/29 09:26:55;;;;;;;12.48;7.53;;;17.30;99.90;;;;;;4899037;29;20043;-80
2022/10/29 09:29:49;;;;;;;11.15;7.25;;;17.20;99.90;;;;;;4916058;29;20277;-80
2022/10/29 09:32:18;;;;;;;18.60;7.68;;;17.30;99.90;;;;;;4916044;29;20111;-80
2022/10/29 09:34:49;;;;;;;12.10;7.70;;;17.40;99.90;;;;;;4916109;29;20609;-80
2022/10/29 09:37:28;;;;;;;12.50;7.45;;;17.40;99.90;;;;;;4915978;29;20039;-80
2022/10/29 09:39:57;;;;;;;11.43;7.35;;;17.40;99.90;;;;;;4898858;29;20032;-80
2022/10/29 09:42:37;;;;;;;11.95;7.28;;;17.40;99.90;;;;;;4915758;29;20024;-80
2022/10/29 09:45:08;;;;;;;16.50;8.35;;;17.40;99.90;;;;;;4915706;29;20523;-81
2022/10/29 09:48:04;;;;;;;14.23;8.38;;;17.50;99.90;;;;;;4898688;29;20047;-80
2022/10/29 09:51:02;;;;;;;15.02;8.77;;;17.60;99.90;;;;;;4878237;29;20132;-80
2022/10/29 09:53:28;;;;;;;16.85;10.15;;;17.50;99.90;;;;;;4866685;29;20120;-80
2022/10/29 09:55:54;;;;;;;16.38;9.70;;;17.60;99.90;;;;;;4915590;29;20055;-80
2022/10/29 09:58:23;;;;;;;17.30;10.38;;;17.60;99.90;;;;;;4915529;29;20048;-80
2022/10/29 10:00:49;;;;;;;22.60;12.32;;;17.60;99.90;;;;;;4898506;29;20115;-80
2022/10/29 10:03:44;;;;;;;23.15;11.05;;;17.70;99.90;;;;;;4898647;29;20032;-80
2022/10/29 10:06:12;;;;;;;23.83;12.25;;;17.70;99.90;;;;;;4915273;29;20529;-80
2022/10/29 10:08:55;;;;;;;21.95;11.55;;;17.80;99.90;;;;;;4915394;29;20028;-80
2022/10/29 10:11:22;;;;;;;21.00;12.18;;;17.90;99.90;;;;;;4898361;29;20421;-80
2022/10/29 10:13:59;;;;;;;25.33;13.60;;;17.90;99.90;;;;;;4898339;29;20482;-81
2022/10/29 10:16:31;;;;;;;22.35;11.98;;;18.00;99.90;;;;;;4915474;29;20036;-80
2022/10/29 10:18:57;;;;;;;;;;;18.10;99.90;;;;;;4918808;29;20024;-80
2022/10/29 10:21:25;;;;;;;24.80;11.77;;;18.10;99.90;;;;;;4904659;29;19962;-80
2022/10/29 10:23:52;;;;;;;22.58;10.70;;;18.10;99.90;;;;;;4921740;29;20095;-80
2022/10/29 10:26:43;;;;;;;21.67;10.60;;;18.10;99.90;;;;;;4921573;29;20080;-80
2022/10/29 10:29:14;;;;;;;24.50;10.50;;;18.30;99.90;;;;;;4921654;29;20028;-80
2022/10/29 10:31:47;;;;;;;24.13;10.80;;;18.40;99.90;;;;;;4921335;29;20036;-80
2022/10/29 10:34:20;;;;;;;17.20;11.25;;;18.40;99.90;;;;;;4921551;29;20035;-80
2022/10/29 10:36:55;;;;;;;19.98;10.70;;;18.40;99.90;;;;;;4904516;29;20115;-80
2022/10/29 10:39:23;;;;;;;20.10;10.82;;;18.40;99.90;;;;;;4921244;29;20380;-80
2022/10/29 10:41:50;;;;;;;21.67;10.88;;;18.60;99.90;;;;;;4904298;29;20036;-81
2022/10/29 10:44:18;;;;;;;18.83;9.52;;;18.70;99.90;;;;;;4921341;29;20558;-81
2022/10/29 10:46:44;;;;;;;25.00;11.15;;;18.80;99.90;;;;;;4921292;29;20037;-81
2022/10/29 10:49:10;;;;;;;22.17;10.60;;;18.90;99.90;;;;;;4920435;29;20502;-80
2022/10/29 10:51:38;;;;;;;18.83;10.23;;;19.00;99.90;;;;;;4919464;29;20067;-80
2022/10/29 10:54:32;;;;;;;18.88;9.88;;;19.00;99.90;;;;;;4919462;29;20435;-81
2022/10/29 10:57:04;;;;;;;18.35;10.02;;;19.10;99.90;;;;;;4919481;29;20479;-81
2022/10/29 11:00:02;;;;;;;15.60;9.52;;;19.00;99.90;;;;;;4919530;29;20024;-80
2022/10/29 11:02:52;;;;;;;26.45;10.93;;;19.10;99.90;;;;;;4919357;29;20449;-80
2022/10/29 11:05:38;;;;;;;18.00;10.48;;;19.10;99.90;;;;;;4920688;29;20036;-80
2022/10/29 11:08:13;;;;;;;21.90;9.98;;;19.20;99.90;;;;;;4921221;29;20032;-80
2022/10/29 11:10:44;;;;;;;21.38;10.93;;;19.30;99.90;;;;;;4921119;29;20550;-80
2022/10/29 11:13:31;;;;;;;21.90;10.88;;;19.30;99.90;;;;;;4901089;29;20479;-80
2022/10/29 11:16:21;;;;;;;19.52;10.00;;;19.30;99.90;;;;;;4921124;29;20025;-80
2022/10/29 11:19:03;;;;;;;21.52;10.82;;;19.30;99.90;;;;;;4904078;29;20020;-80
2022/10/29 11:21:50;;;;;;;22.42;11.73;;;19.30;99.90;;;;;;4921123;29;20024;-80
2022/10/29 11:24:34;;;;;;;20.20;10.52;;;19.40;99.90;;;;;;4920834;29;20150;-80
2022/10/29 11:27:05;;;;;;;17.33;9.57;;;19.50;99.90;;;;;;4920982;29;20475;-80
2022/10/29 11:30:00;;;;;;;19.90;10.05;;;19.60;99.90;;;;;;4920427;29;20119;-80
2022/10/29 11:32:38;;;;;;;18.58;10.07;;;19.60;99.90;;;;;;4917988;29;20081;-80
2022/10/29 11:35:18;;;;;;;20.35;8.95;;;19.60;99.90;;;;;;4918016;29;20119;-80
2022/10/29 11:38:03;;;;;;;16.90;9.38;;;19.60;99.90;;;;;;4918057;29;20032;-80
2022/10/29 11:40:53;;;;;;;17.27;9.23;;;19.60;99.90;;;;;;4917944;29;20028;-80
2022/10/29 11:43:20;;;;;;;16.83;9.20;;;19.70;99.90;;;;;;4917914;29;20032;-80
2022/10/29 11:46:21;;;;;;;20.85;9.32;;;19.60;99.90;;;;;;4917867;29;20486;-80
2022/10/29 11:49:05;;;;;;;18.38;7.53;;;19.80;99.90;;;;;;4917795;29;20083;-80
2022/10/29 11:51:55;;;;;;;16.30;8.45;;;19.80;99.90;;;;;;4900582;29;20032;-80
2022/10/29 11:54:53;;;;;;;16.65;8.95;;;19.80;99.90;;;;;;4900702;29;20040;-80
2022/10/29 11:58:15;;;;;;;18.15;9.13;;;20.00;99.90;;;;;;4865579;29;20483;-79
2022/10/29 12:01:11;;;;;;;15.52;8.07;;;19.90;99.90;;;;;;4822248;29;20034;-80
2022/10/29 12:03:51;;;;;;;15.88;8.02;;;19.90;99.90;;;;;;4822157;29;20575;-80
2022/10/29 12:06:26;;;;;;;17.20;7.95;;;19.90;99.90;;;;;;4905808;29;20442;-80
2022/10/29 12:09:27;;;;;;;19.90;8.63;;;19.90;99.90;;;;;;4917403;29;20039;-80
2022/10/29 12:12:03;;;;;;;22.58;9.00;;;19.90;99.90;;;;;;4900243;29;20036;-81
2022/10/29 12:14:40;;;;;;;14.23;8.10;;;19.90;99.90;;;;;;4917325;29;20530;-80
2022/10/29 12:17:14;;;;;;;15.35;8.32;;;19.90;99.90;;;;;;4917387;29;20031;-80
2022/10/29 12:19:52;;;;;;;16.10;7.60;;;19.90;99.90;;;;;;4917169;29;20510;-80
2022/10/29 12:22:33;;;;;;;17.50;8.00;;;19.90;99.90;;;;;;4917194;29;20453;-80
2022/10/29 12:25:10;;;;;;;17.65;9.25;;;19.90;99.90;;;;;;4917151;29;20040;-80
2022/10/29 12:27:48;;;;;;;14.38;8.65;;;19.90;99.90;;;;;;4900096;29;20368;-80
2022/10/29 12:30:17;;;;;;;12.80;7.43;;;19.90;99.90;;;;;;4899769;29;20083;-80
2022/10/29 12:33:05;;;;;;;17.52;8.32;;;20.00;99.90;;;;;;4916539;29;20067;-80
2022/10/29 12:35:45;;;;;;;16.27;6.88;;;20.10;99.90;;;;;;4914961;29;20498;-80
2022/10/29 12:38:24;;;;;;;10.57;4.75;;;20.10;99.90;;;;;;4897489;29;20274;-80
2022/10/29 12:40:59;;;;;;;10.20;4.55;;;20.10;99.90;;;;;;4897860;29;20024;-81
2022/10/29 12:43:28;;;;;;;7.30;3.72;;;20.30;99.90;;;;;;4914816;29;20036;-81
2022/10/29 12:46:00;;;;;;;7.97;5.03;;;20.20;99.90;;;;;;4912486;29;20059;-80
2022/10/29 12:49:06;;;;;;;6.13;4.57;;;20.20;99.90;;;;;;4915325;29;20565;-80
2022/10/29 12:52:01;;;;;;;7.82;4.90;;;20.20;99.90;;;;;;4912968;29;20028;-81
2022/10/29 12:54:49;;;;;;;10.80;5.30;;;20.10;99.90;;;;;;4913891;29;20036;-81
2022/10/29 12:57:14;;;;;;;11.52;5.10;;;20.10;99.90;;;;;;4912030;29;20028;-80
2022/10/29 12:59:41;;;;;;;11.13;4.95;;;20.20;99.90;;;;;;4912596;29;20032;-80
2022/10/29 13:02:26;;;;;;;14.38;5.40;;;20.20;99.90;;;;;;4914171;29;20109;-80
2022/10/29 13:05:09;;;;;;;11.48;5.30;;;20.20;99.90;;;;;;4882476;29;20490;-81
2022/10/29 13:07:57;;;;;;;13.10;5.38;;;20.40;99.90;;;;;;4911820;29;20066;-80